AFL758 URSS-UWLL
Flight info
| Callsign | AFL758 |
|---|---|
| Flight time | N/A |
| Altitude | 36000 |
| Route | ADNET W79 NZ B145 ER G128 MOR R720 DAFOS T789 NEPNI |
| Aircraft | A20N/M-SDE3FGHIRWY/C |
Departure
| Time | N/A |
|---|---|
| Airport | Sochi International Airport (URSS) |
Arrival
| Time | 2026-04-30 19:42 |
|---|---|
| Airport | Ulyanovsk Baratayevka Airport (UWLL) |
| Time | Latitude | Longitude | Altitude | Speed | Heading |
|---|---|---|---|---|---|
| 2026-04-30 18:21 | 46.14064 | 40.30705 | 36179 ft | 498 kts | 20° |
| 2026-04-30 18:21 | 46.20190 | 40.35332 | 36182 ft | 497 kts | 20° |
| 2026-04-30 18:22 | 46.26289 | 40.39946 | 36162 ft | 497 kts | 20° |
| 2026-04-30 18:22 | 46.34365 | 40.46079 | 36161 ft | 497 kts | 20° |
| 2026-04-30 18:23 | 46.40414 | 40.50945 | 36180 ft | 498 kts | 23° |
| 2026-04-30 18:23 | 46.42299 | 40.52519 | 36175 ft | 498 kts | 23° |
| 2026-04-30 18:24 | 46.46603 | 40.56109 | 36177 ft | 497 kts | 22° |
| 2026-04-30 18:25 | 46.52687 | 40.61153 | 36183 ft | 496 kts | 22° |
| 2026-04-30 18:25 | 46.60444 | 40.66637 | 36165 ft | 488 kts | 14° |
| 2026-04-30 18:26 | 46.67183 | 40.69938 | 36169 ft | 484 kts | 10° |
| 2026-04-30 18:27 | 46.75847 | 40.73727 | 36157 ft | 483 kts | 9° |
| 2026-04-30 18:28 | 46.83888 | 40.77309 | 36148 ft | 482 kts | 10° |
| 2026-04-30 18:28 | 46.93106 | 40.81461 | 36161 ft | 483 kts | 10° |
| 2026-04-30 18:29 | 47.05994 | 40.87309 | 36179 ft | 483 kts | 10° |
| 2026-04-30 18:30 | 47.18777 | 40.93127 | 36157 ft | 483 kts | 11° |
| 2026-04-30 18:31 | 47.27688 | 40.97205 | 36178 ft | 482 kts | 10° |
| 2026-04-30 18:32 | 47.35481 | 41.00779 | 36180 ft | 482 kts | 11° |
| 2026-04-30 18:33 | 47.44820 | 41.05078 | 36176 ft | 484 kts | 11° |
| 2026-04-30 18:33 | 47.53769 | 41.09252 | 36173 ft | 485 kts | 13° |
| 2026-04-30 18:34 | 47.62561 | 41.14937 | 36186 ft | 493 kts | 23° |
| 2026-04-30 18:35 | 47.68484 | 41.20092 | 36168 ft | 495 kts | 26° |
| 2026-04-30 18:35 | 47.74377 | 41.25403 | 36175 ft | 496 kts | 26° |
| 2026-04-30 18:36 | 47.83196 | 41.33309 | 36173 ft | 496 kts | 26° |
| 2026-04-30 18:37 | 47.91992 | 41.41304 | 36172 ft | 495 kts | 26° |
| 2026-04-30 18:37 | 47.97870 | 41.46666 | 36174 ft | 495 kts | 26° |
| 2026-04-30 18:38 | 48.03729 | 41.52022 | 36164 ft | 494 kts | 26° |
| 2026-04-30 18:38 | 48.10049 | 41.57812 | 36173 ft | 495 kts | 26° |
| 2026-04-30 18:39 | 48.16554 | 41.63792 | 36159 ft | 495 kts | 26° |
| 2026-04-30 18:39 | 48.23018 | 41.69752 | 36158 ft | 494 kts | 27° |
| 2026-04-30 18:40 | 48.29416 | 41.75667 | 36150 ft | 495 kts | 27° |
| 2026-04-30 18:40 | 48.35674 | 41.81906 | 36149 ft | 497 kts | 33° |
| 2026-04-30 18:41 | 48.41486 | 41.88833 | 36157 ft | 498 kts | 35° |
| 2026-04-30 18:41 | 48.47441 | 41.96097 | 36140 ft | 499 kts | 35° |
| 2026-04-30 18:42 | 48.53373 | 42.03323 | 36154 ft | 498 kts | 35° |
| 2026-04-30 18:42 | 48.59454 | 42.10735 | 36155 ft | 498 kts | 35° |
| 2026-04-30 18:45 | 48.88248 | 42.46129 | 36144 ft | 495 kts | 36° |
| 2026-04-30 18:46 | 48.93563 | 42.52720 | 36145 ft | 495 kts | 36° |
| 2026-04-30 18:46 | 48.98231 | 42.58529 | 36149 ft | 495 kts | 36° |
| 2026-04-30 18:47 | 49.03517 | 42.65125 | 36136 ft | 494 kts | 36° |
| 2026-04-30 18:47 | 49.08772 | 42.71697 | 36140 ft | 494 kts | 37° |
| 2026-04-30 18:48 | 49.14018 | 42.78281 | 36138 ft | 494 kts | 37° |
| 2026-04-30 18:48 | 49.19016 | 42.84563 | 36146 ft | 495 kts | 37° |
| 2026-04-30 18:49 | 49.24386 | 42.91336 | 36148 ft | 496 kts | 37° |
| 2026-04-30 18:49 | 49.30032 | 42.98481 | 36144 ft | 496 kts | 37° |
| 2026-04-30 18:50 | 49.35667 | 43.05634 | 36141 ft | 494 kts | 37° |
| 2026-04-30 18:50 | 49.41237 | 43.12724 | 36152 ft | 494 kts | 37° |
| 2026-04-30 18:51 | 49.46769 | 43.19785 | 36148 ft | 494 kts | 37° |
| 2026-04-30 18:51 | 49.51734 | 43.26143 | 36144 ft | 494 kts | 37° |
| 2026-04-30 18:52 | 49.56961 | 43.32856 | 36145 ft | 493 kts | 37° |
| 2026-04-30 18:53 | 49.62247 | 43.39661 | 36135 ft | 494 kts | 37° |
| 2026-04-30 18:53 | 49.67499 | 43.46443 | 36129 ft | 494 kts | 37° |
| 2026-04-30 18:54 | 49.72774 | 43.53276 | 36129 ft | 494 kts | 37° |
| 2026-04-30 18:54 | 49.77988 | 43.60052 | 35816 ft | 494 kts | 37° |
| 2026-04-30 18:54 | 49.80639 | 43.63503 | 35590 ft | 494 kts | 37° |
| 2026-04-30 18:55 | 49.83242 | 43.66896 | 35376 ft | 494 kts | 38° |
| 2026-04-30 18:55 | 49.88473 | 43.73731 | 35121 ft | 494 kts | 38° |
| 2026-04-30 18:55 | 49.91118 | 43.77194 | 35115 ft | 494 kts | 38° |
| 2026-04-30 18:56 | 49.98970 | 43.87508 | 35108 ft | 495 kts | 38° |
| 2026-04-30 18:57 | 50.06809 | 43.97849 | 35106 ft | 494 kts | 38° |
| 2026-04-30 18:57 | 50.12013 | 44.04737 | 35101 ft | 493 kts | 38° |
| 2026-04-30 18:58 | 50.19849 | 44.15155 | 35104 ft | 494 kts | 38° |
| 2026-04-30 18:59 | 50.27636 | 44.25555 | 35093 ft | 494 kts | 38° |
| 2026-04-30 19:00 | 50.38046 | 44.39527 | 35090 ft | 494 kts | 38° |
| 2026-04-30 19:01 | 50.48427 | 44.53543 | 35099 ft | 494 kts | 39° |
| 2026-04-30 19:02 | 50.56205 | 44.64100 | 35090 ft | 493 kts | 39° |
| 2026-04-30 19:03 | 50.66569 | 44.78243 | 35094 ft | 493 kts | 39° |
| 2026-04-30 19:04 | 50.76872 | 44.92386 | 35095 ft | 493 kts | 40° |
| 2026-04-30 19:05 | 50.87177 | 45.06615 | 35082 ft | 493 kts | 40° |
| 2026-04-30 19:06 | 50.97451 | 45.20892 | 35069 ft | 493 kts | 40° |
| 2026-04-30 19:06 | 51.05129 | 45.31641 | 35056 ft | 492 kts | 40° |
| 2026-04-30 19:07 | 51.12808 | 45.42465 | 35055 ft | 493 kts | 40° |
| 2026-04-30 19:08 | 51.23042 | 45.56961 | 35045 ft | 494 kts | 40° |
| 2026-04-30 19:09 | 51.30718 | 45.67891 | 35044 ft | 493 kts | 41° |
| 2026-04-30 19:09 | 51.35802 | 45.75160 | 35039 ft | 493 kts | 41° |
| 2026-04-30 19:10 | 51.45980 | 45.89778 | 35036 ft | 492 kts | 41° |
| 2026-04-30 19:11 | 51.53667 | 46.00588 | 35040 ft | 491 kts | 37° |
| 2026-04-30 19:12 | 51.59219 | 46.06833 | 35043 ft | 491 kts | 31° |
| 2026-04-30 19:12 | 51.65206 | 46.12122 | 35032 ft | 491 kts | 26° |
| 2026-04-30 19:13 | 51.77332 | 46.22015 | 35041 ft | 490 kts | 26° |
| 2026-04-30 19:14 | 51.83376 | 46.27025 | 35030 ft | 490 kts | 26° |
| 2026-04-30 19:14 | 51.89412 | 46.32052 | 35026 ft | 489 kts | 26° |
| 2026-04-30 19:15 | 51.95410 | 46.37058 | 35014 ft | 488 kts | 26° |
| 2026-04-30 19:15 | 52.04448 | 46.44633 | 35005 ft | 489 kts | 26° |
| 2026-04-30 19:16 | 52.10457 | 46.49687 | 35016 ft | 489 kts | 26° |
| 2026-04-30 19:17 | 52.19490 | 46.57318 | 35001 ft | 489 kts | 26° |
| 2026-04-30 19:17 | 52.28516 | 46.64980 | 35000 ft | 489 kts | 27° |
| 2026-04-30 19:18 | 52.37575 | 46.72706 | 34992 ft | 490 kts | 27° |
| 2026-04-30 19:19 | 52.43585 | 46.77849 | 35000 ft | 490 kts | 27° |
| 2026-04-30 19:19 | 52.52629 | 46.85622 | 34992 ft | 490 kts | 28° |
| 2026-04-30 19:20 | 52.55624 | 46.88205 | 34848 ft | 491 kts | 28° |
| 2026-04-30 19:20 | 52.58643 | 46.90811 | 34611 ft | 490 kts | 28° |
| 2026-04-30 19:20 | 52.64620 | 46.95981 | 33681 ft | 486 kts | 28° |
| 2026-04-30 19:21 | 52.67591 | 46.98558 | 33118 ft | 487 kts | 28° |
| 2026-04-30 19:21 | 52.73570 | 47.03756 | 31645 ft | 492 kts | 27° |
| 2026-04-30 19:22 | 52.79609 | 47.09020 | 29461 ft | 493 kts | 28° |
| 2026-04-30 19:22 | 52.88532 | 47.16817 | 26547 ft | 494 kts | 29° |
| 2026-04-30 19:23 | 52.97653 | 47.24855 | 23684 ft | 496 kts | 30° |
| 2026-04-30 19:24 | 53.03635 | 47.30146 | 22310 ft | 484 kts | 30° |
| 2026-04-30 19:24 | 53.06599 | 47.32772 | 21707 ft | 477 kts | 30° |
| 2026-04-30 19:24 | 53.12372 | 47.37896 | 20496 ft | 465 kts | 30° |
| 2026-04-30 19:25 | 53.20742 | 47.45354 | 18737 ft | 451 kts | 30° |
| 2026-04-30 19:26 | 53.26220 | 47.50252 | 17596 ft | 442 kts | 30° |
| 2026-04-30 19:26 | 53.31547 | 47.55028 | 16448 ft | 434 kts | 30° |
| 2026-04-30 19:26 | 53.34183 | 47.57394 | 15877 ft | 429 kts | 30° |
| 2026-04-30 19:27 | 53.39357 | 47.62053 | 14790 ft | 422 kts | 30° |
| 2026-04-30 19:27 | 53.44472 | 47.66672 | 13655 ft | 413 kts | 30° |
| 2026-04-30 19:28 | 53.47000 | 47.68909 | 13077 ft | 410 kts | 28° |
| 2026-04-30 19:28 | 53.52178 | 47.72636 | 11970 ft | 401 kts | 23° |
| 2026-04-30 19:29 | 53.57220 | 47.75928 | 11306 ft | 379 kts | 22° |
| 2026-04-30 19:29 | 53.59638 | 47.77513 | 11079 ft | 366 kts | 22° |
| 2026-04-30 19:30 | 53.66382 | 47.81983 | 10505 ft | 330 kts | 23° |
| 2026-04-30 19:30 | 53.70419 | 47.84827 | 10221 ft | 305 kts | 29° |
| 2026-04-30 19:31 | 53.73974 | 47.88222 | 9983 ft | 283 kts | 33° |
| 2026-04-30 19:31 | 53.75675 | 47.89922 | 9621 ft | 288 kts | 33° |
| 2026-04-30 19:31 | 53.79101 | 47.93331 | 9009 ft | 286 kts | 33° |
| 2026-04-30 19:32 | 53.80821 | 47.95041 | 8727 ft | 283 kts | 33° |
| 2026-04-30 19:32 | 53.82515 | 47.96728 | 8454 ft | 281 kts | 33° |
| 2026-04-30 19:32 | 53.84173 | 47.98380 | 8161 ft | 278 kts | 33° |
| 2026-04-30 19:32 | 53.85830 | 48.00025 | 7816 ft | 276 kts | 33° |
| 2026-04-30 19:33 | 53.87474 | 48.01658 | 7470 ft | 274 kts | 33° |
| 2026-04-30 19:33 | 53.89095 | 48.03272 | 7165 ft | 271 kts | 33° |
| 2026-04-30 19:33 | 53.90722 | 48.04895 | 6843 ft | 268 kts | 33° |
| 2026-04-30 19:33 | 53.92298 | 48.06464 | 6574 ft | 261 kts | 33° |
| 2026-04-30 19:34 | 53.93834 | 48.07993 | 6186 ft | 253 kts | 33° |
| 2026-04-30 19:34 | 53.95324 | 48.09483 | 5808 ft | 245 kts | 33° |
| 2026-04-30 19:34 | 53.98119 | 48.12277 | 5577 ft | 228 kts | 33° |
| 2026-04-30 19:35 | 53.99480 | 48.13643 | 5576 ft | 228 kts | 33° |
| 2026-04-30 19:35 | 54.00848 | 48.15020 | 5574 ft | 228 kts | 33° |
| 2026-04-30 19:35 | 54.02212 | 48.16389 | 5550 ft | 228 kts | 33° |
| 2026-04-30 19:35 | 54.03566 | 48.17752 | 5480 ft | 227 kts | 33° |
| 2026-04-30 19:36 | 54.04932 | 48.19048 | 5190 ft | 227 kts | 23° |
| 2026-04-30 19:36 | 54.06501 | 48.19229 | 4817 ft | 234 kts | 342° |
| 2026-04-30 19:36 | 54.08337 | 48.15127 | 4429 ft | 221 kts | 289° |
| 2026-04-30 19:37 | 54.08860 | 48.12685 | 4098 ft | 216 kts | 296° |
| 2026-04-30 19:37 | 54.09511 | 48.10438 | 3746 ft | 211 kts | 302° |
| 2026-04-30 19:37 | 54.10262 | 48.08287 | 3344 ft | 209 kts | 305° |
| 2026-04-30 19:37 | 54.11107 | 48.06292 | 2933 ft | 206 kts | 323° |
| 2026-04-30 19:38 | 54.12347 | 48.05298 | 2497 ft | 196 kts | 1° |
| 2026-04-30 19:38 | 54.13602 | 48.05806 | 2114 ft | 186 kts | 39° |
| 2026-04-30 19:38 | 54.14511 | 48.07357 | 2056 ft | 186 kts | 51° |
| 2026-04-30 19:38 | 54.15327 | 48.09071 | 2065 ft | 185 kts | 50° |
| 2026-04-30 19:39 | 54.16179 | 48.10564 | 2092 ft | 165 kts | 43° |
| 2026-04-30 19:39 | 54.17010 | 48.11692 | 2022 ft | 144 kts | 37° |
| 2026-04-30 19:39 | 54.17821 | 48.12645 | 2029 ft | 141 kts | 35° |
| 2026-04-30 19:39 | 54.18652 | 48.13563 | 2040 ft | 141 kts | 34° |
| 2026-04-30 19:40 | 54.19479 | 48.14455 | 1976 ft | 141 kts | 34° |
| 2026-04-30 19:40 | 54.20292 | 48.15326 | 1796 ft | 135 kts | 34° |
| 2026-04-30 19:40 | 54.21081 | 48.16173 | 1605 ft | 133 kts | 34° |
| 2026-04-30 19:40 | 54.21853 | 48.17003 | 1426 ft | 132 kts | 34° |
| 2026-04-30 19:41 | 54.22633 | 48.17845 | 1246 ft | 132 kts | 34° |
| 2026-04-30 19:41 | 54.23400 | 48.18685 | 1070 ft | 132 kts | 33° |
| 2026-04-30 19:41 | 54.24178 | 48.19524 | 876 ft | 131 kts | 32° |
| 2026-04-30 19:41 | 54.24940 | 48.20348 | 700 ft | 131 kts | 32° |
| 2026-04-30 19:42 | 54.25709 | 48.21159 | 511 ft | 130 kts | 31° |
| 2026-04-30 19:42 | 54.26467 | 48.21963 | 433 ft | 114 kts | 31° |
| 2026-04-30 19:42 | 54.26994 | 48.22521 | 420 ft | 64 kts | 32° |
| 2026-04-30 19:42 | 54.27262 | 48.22805 | 410 ft | 39 kts | 33° |
| 2026-04-30 19:43 | 54.27523 | 48.23087 | 401 ft | 52 kts | 31° |
| 2026-04-30 19:43 | 54.27870 | 48.23459 | 389 ft | 58 kts | 31° |
| 2026-04-30 19:43 | 54.28176 | 48.23788 | 370 ft | 42 kts | 31° |
| 2026-04-30 19:44 | 54.28351 | 48.23721 | 366 ft | 0 kts | 302° |
| 2026-04-30 19:44 | 54.28358 | 48.23704 | 365 ft | 3 kts | 302° |
| 2026-04-30 19:44 | 54.28364 | 48.23687 | 365 ft | 0 kts | 302° |
| 2026-04-30 19:44 | 54.28365 | 48.23684 | 365 ft | 1 kts | 302° |
| 2026-04-30 19:45 | 54.28366 | 48.23681 | 365 ft | 1 kts | 302° |
| 2026-04-30 19:45 | 54.28382 | 48.23639 | 364 ft | 6 kts | 302° |
| 2026-04-30 19:45 | 54.28418 | 48.23542 | 363 ft | 12 kts | 302° |
| 2026-04-30 19:45 | 54.28444 | 48.23477 | 362 ft | 5 kts | 311° |
| 2026-04-30 19:46 | 54.28484 | 48.23412 | 361 ft | 7 kts | 320° |
| 2026-04-30 19:46 | 54.28525 | 48.23346 | 360 ft | 7 kts | 305° |
| 2026-04-30 19:46 | 54.28536 | 48.23318 | 360 ft | 0 kts | 302° |